Time;durP1;ratioP1;P1;durP2;ratioP2;P2;SDS_P1;SDS_P2;PMS_P1;PMS_P2;Temp;Humidity;BMP_temperature;BMP_pressure;BME280_temperature;BME280_humidity;BME280_pressure;Samples;Min_cycle;Max_cycle;Signal;HPM_P1;HPM_P2
2022/06/08 00:00:14;;;;;;;9.30;2.42;;;12.10;99.90;;;;;;4984911;28;20554;-55
2022/06/08 00:02:43;;;;;;;9.23;2.80;;;12.00;99.90;;;;;;4984768;28;20045;-56
2022/06/08 00:05:10;;;;;;;6.80;2.47;;;12.00;99.90;;;;;;4983576;28;20048;-56
2022/06/08 00:07:38;;;;;;;4.22;2.28;;;12.00;99.90;;;;;;4982845;28;20044;-56
2022/06/08 00:10:06;;;;;;;7.43;2.10;;;11.90;99.90;;;;;;4985030;28;20041;-56
2022/06/08 00:12:34;;;;;;;5.25;2.67;;;11.90;99.90;;;;;;4984644;28;20045;-55
2022/06/08 00:15:02;;;;;;;6.35;2.40;;;11.90;99.90;;;;;;4971423;28;20194;-59
2022/06/08 00:17:29;;;;;;;4.95;2.53;;;11.80;99.90;;;;;;4973261;28;20037;-56
2022/06/08 00:19:56;;;;;;;;;;;11.80;99.90;;;;;;4985176;28;20037;-55
2022/06/08 00:22:23;;;;;;;7.68;2.50;;;11.80;99.90;;;;;;4983450;28;20805;-55
2022/06/08 00:24:50;;;;;;;4.40;2.30;;;11.80;99.90;;;;;;4985154;28;20272;-57
2022/06/08 00:27:16;;;;;;;9.13;2.30;;;11.70;99.90;;;;;;4984883;28;20041;-55
2022/06/08 00:29:44;;;;;;;9.02;2.17;;;11.70;99.90;;;;;;4985613;28;20045;-57
2022/06/08 00:32:11;;;;;;;5.90;2.88;;;11.70;99.90;;;;;;4981546;28;20115;-58
2022/06/08 00:34:38;;;;;;;10.27;3.33;;;11.60;99.90;;;;;;4987535;28;20090;-57
2022/06/08 00:37:05;;;;;;;4.32;2.03;;;11.60;99.90;;;;;;4985680;28;20201;-56
2022/06/08 00:39:33;;;;;;;10.52;2.88;;;11.60;99.90;;;;;;4985352;28;20840;-55
2022/06/08 00:42:06;;;;;;;6.20;2.33;;;11.60;99.90;;;;;;4984244;28;20033;-56
2022/06/08 00:44:48;;;;;;;6.13;2.35;;;11.50;99.90;;;;;;4985585;28;20225;-56
2022/06/08 00:47:22;;;;;;;5.78;2.75;;;11.50;99.90;;;;;;4981307;28;20041;-55
2022/06/08 00:50:00;;;;;;;5.32;2.28;;;11.50;99.90;;;;;;4982148;28;20848;-56
2022/06/08 00:52:28;;;;;;;5.88;2.92;;;11.50;99.90;;;;;;4983102;28;20722;-55
2022/06/08 00:55:02;;;;;;;8.98;2.67;;;11.50;99.90;;;;;;4981522;28;20049;-55
2022/06/08 00:57:45;;;;;;;4.13;2.25;;;11.50;99.90;;;;;;4982833;28;20045;-56
2022/06/08 01:00:15;;;;;;;2.55;2.17;;;11.50;99.90;;;;;;4984369;28;20232;-56
2022/06/08 01:02:42;;;;;;;6.78;2.10;;;11.50;99.90;;;;;;4980857;28;20866;-56
2022/06/08 01:05:29;;;;;;;5.68;2.50;;;11.50;99.90;;;;;;4979905;28;20293;-56
2022/06/08 01:08:29;;;;;;;5.13;2.50;;;11.50;99.90;;;;;;4964352;28;20061;-56
2022/06/08 01:11:01;;;;;;;10.75;2.92;;;11.40;99.90;;;;;;4939990;28;20045;-56
2022/06/08 01:13:32;;;;;;;6.95;2.40;;;11.40;99.90;;;;;;4966749;28;20038;-56
2022/06/08 01:16:05;;;;;;;10.57;3.45;;;11.40;99.90;;;;;;4969745;28;20073;-56
2022/06/08 01:18:34;;;;;;;9.95;2.70;;;11.30;99.90;;;;;;4977922;28;20045;-57
2022/06/08 01:21:22;;;;;;;4.43;2.08;;;11.30;99.90;;;;;;4964680;28;20048;-55
2022/06/08 01:24:03;;;;;;;8.50;2.45;;;11.30;99.90;;;;;;4968217;28;20127;-55
2022/06/08 01:26:42;;;;;;;6.68;2.40;;;11.30;99.90;;;;;;4963799;28;20602;-56
2022/06/08 01:29:13;;;;;;;10.55;2.40;;;11.20;99.90;;;;;;4981461;28;20052;-55
2022/06/08 01:32:07;;;;;;;5.22;2.53;;;11.20;99.90;;;;;;4963241;28;20590;-55
2022/06/08 01:34:52;;;;;;;9.63;2.75;;;11.20;99.90;;;;;;4966295;28;20058;-58
2022/06/08 01:37:41;;;;;;;5.68;2.42;;;11.20;99.90;;;;;;4963568;28;20219;-56
2022/06/08 01:40:14;;;;;;;4.18;2.80;;;11.10;99.90;;;;;;4964640;28;20099;-55
2022/06/08 01:42:57;;;;;;;10.00;3.20;;;11.10;99.90;;;;;;4983488;28;20041;-56
2022/06/08 01:45:47;;;;;;;3.60;2.25;;;11.10;99.90;;;;;;4987036;28;20049;-58
2022/06/08 01:48:14;;;;;;;10.75;2.38;;;11.10;99.90;;;;;;4986182;28;20788;-56
2022/06/08 01:50:59;;;;;;;6.38;2.38;;;11.10;99.90;;;;;;4985998;28;20045;-56
2022/06/08 01:53:52;;;;;;;2.90;2.10;;;11.10;99.90;;;;;;4987609;28;20115;-55
2022/06/08 01:57:05;;;;;;;12.70;3.20;;;11.10;99.90;;;;;;4984599;28;20363;-56
2022/06/08 01:59:43;;;;;;;12.00;3.03;;;11.10;99.90;;;;;;4985555;28;20361;-56
2022/06/08 02:02:30;;;;;;;9.52;2.60;;;11.00;99.90;;;;;;4987659;28;20118;-60
2022/06/08 02:05:21;;;;;;;15.00;2.72;;;11.00;99.90;;;;;;4987471;28;20242;-56
2022/06/08 02:08:00;;;;;;;13.55;2.85;;;11.00;99.90;;;;;;4987849;28;20195;-56
2022/06/08 02:10:43;;;;;;;4.53;2.58;;;11.00;99.90;;;;;;4984641;28;20159;-58
2022/06/08 02:13:34;;;;;;;11.63;2.60;;;10.90;99.90;;;;;;4990097;28;20049;-54
2022/06/08 02:16:28;;;;;;;7.28;2.45;;;11.00;99.90;;;;;;4962808;28;20547;-55
2022/06/08 02:19:03;;;;;;;6.38;2.40;;;11.00;99.90;;;;;;4965831;28;20038;-55
2022/06/08 02:21:41;;;;;;;7.50;2.63;;;10.90;99.90;;;;;;4967395;28;20552;-57
2022/06/08 02:24:23;;;;;;;4.82;2.47;;;11.00;99.90;;;;;;4981295;28;20050;-55
2022/06/08 02:26:58;;;;;;;5.80;2.33;;;11.00;99.90;;;;;;4980530;28;20187;-56
2022/06/08 02:29:49;;;;;;;5.22;2.17;;;11.00;99.90;;;;;;4981239;28;20042;-55
2022/06/08 02:35:25;;;;;;;7.78;2.28;;;11.10;99.90;;;;;;4981767;28;20049;-56
2022/06/08 02:37:57;;;;;;;7.22;2.20;;;11.10;99.90;;;;;;4964683;28;20345;-56
2022/06/08 02:40:29;;;;;;;10.02;2.58;;;11.20;99.90;;;;;;4982683;28;20858;-56
2022/06/08 02:43:07;;;;;;;3.33;1.98;;;11.20;99.90;;;;;;4987827;28;20029;-56
2022/06/08 02:45:40;;;;;;;6.35;2.35;;;11.30;99.90;;;;;;4998188;28;20044;-55
2022/06/08 02:48:13;;;;;;;4.55;2.47;;;11.30;99.90;;;;;;4991173;28;20144;-55
2022/06/08 02:50:53;;;;;;;6.20;2.15;;;11.30;99.90;;;;;;4984189;28;20056;-56
2022/06/08 02:53:26;;;;;;;5.05;2.70;;;11.30;99.90;;;;;;4986067;28;20365;-57
2022/06/08 02:56:06;;;;;;;5.38;1.80;;;11.40;99.90;;;;;;4983759;28;20037;-56
2022/06/08 02:58:45;;;;;;;15.10;2.60;;;11.40;99.90;;;;;;4983475;28;20602;-55
2022/06/08 03:01:21;;;;;;;5.20;2.22;;;11.40;99.90;;;;;;4984694;28;20032;-55
2022/06/08 03:03:54;;;;;;;7.05;2.47;;;11.50;99.90;;;;;;4983284;28;20043;-56
2022/06/08 03:06:35;;;;;;;5.55;2.40;;;11.50;99.90;;;;;;4983573;28;20035;-56
2022/06/08 03:09:06;;;;;;;4.70;2.30;;;11.50;99.90;;;;;;4983455;28;20045;-56
2022/06/08 03:11:44;;;;;;;4.75;1.88;;;11.50;99.90;;;;;;4982830;28;20072;-56
2022/06/08 03:14:13;;;;;;;6.40;2.08;;;11.50;99.90;;;;;;4987011;28;20065;-56
2022/06/08 03:16:59;;;;;;;3.72;2.00;;;11.60;99.90;;;;;;4980932;28;20578;-55
2022/06/08 03:19:28;;;;;;;7.90;2.05;;;11.60;99.90;;;;;;4962508;28;20064;-56
2022/06/08 03:21:56;;;;;;;3.33;1.92;;;11.60;99.90;;;;;;4979488;28;20045;-56
2022/06/08 03:24:28;;;;;;;8.88;2.45;;;11.60;99.90;;;;;;4963903;28;20042;-56
2022/06/08 03:27:00;;;;;;;7.43;2.40;;;11.60;99.90;;;;;;4964726;28;20349;-57
2022/06/08 03:29:31;;;;;;;5.85;2.33;;;11.60;99.90;;;;;;4979751;28;20585;-55
2022/06/08 03:31:59;;;;;;;4.03;2.20;;;11.60;99.90;;;;;;4966530;28;20057;-56
2022/06/08 03:34:26;;;;;;;7.38;2.28;;;11.60;99.90;;;;;;4962312;28;20164;-56
2022/06/08 03:36:54;;;;;;;5.60;2.40;;;11.60;99.90;;;;;;4979640;28;20049;-57
2022/06/08 03:39:23;;;;;;;4.03;2.22;;;11.60;99.90;;;;;;4962474;28;20094;-57
2022/06/08 03:41:50;;;;;;;3.70;2.00;;;11.60;99.90;;;;;;4975075;28;20045;-56
2022/06/08 03:44:17;;;;;;;;;;;11.60;99.90;;;;;;4986055;28;20577;-56
2022/06/08 03:47:02;;;;;;;3.03;1.85;;;11.60;99.90;;;;;;4986055;28;19924;-56
2022/06/08 03:49:30;;;;;;;5.53;2.15;;;11.60;99.90;;;;;;4967879;28;20843;-56
2022/06/08 03:52:00;;;;;;;4.47;2.40;;;11.60;99.90;;;;;;4986960;28;20052;-55
2022/06/08 03:54:32;;;;;;;4.90;2.33;;;11.60;99.90;;;;;;4987899;28;20198;-56
2022/06/08 03:57:03;;;;;;;6.72;2.13;;;11.60;99.90;;;;;;4984560;28;20232;-57
2022/06/08 03:59:32;;;;;;;4.22;2.15;;;11.60;99.90;;;;;;4983193;28;20371;-56
2022/06/08 04:02:02;;;;;;;6.32;2.08;;;11.60;99.90;;;;;;4982807;28;20280;-56
2022/06/08 04:04:30;;;;;;;4.22;1.50;;;11.60;99.90;;;;;;4983511;28;20040;-57
2022/06/08 04:06:57;;;;;;;3.55;2.05;;;11.60;99.90;;;;;;4967108;28;20933;-57
2022/06/08 04:09:25;;;;;;;3.67;1.85;;;11.60;99.90;;;;;;4982546;28;20206;-56
2022/06/08 04:11:52;;;;;;;6.72;2.58;;;11.60;99.90;;;;;;4984105;28;20144;-57
2022/06/08 04:14:21;;;;;;;6.30;2.22;;;11.60;99.90;;;;;;4983147;28;20049;-56
2022/06/08 04:16:50;;;;;;;4.22;1.77;;;11.60;99.90;;;;;;4983770;28;20041;-55
2022/06/08 04:19:20;;;;;;;2.55;1.50;;;11.60;99.90;;;;;;4979543;28;20048;-56
2022/06/08 04:21:48;;;;;;;8.38;2.50;;;11.60;99.90;;;;;;4982619;28;20215;-55
2022/06/08 04:24:22;;;;;;;3.00;1.80;;;11.60;99.90;;;;;;4981774;28;20301;-56
2022/06/08 04:26:57;;;;;;;4.65;1.60;;;11.60;99.90;;;;;;4998934;28;20550;-58
2022/06/08 04:29:33;;;;;;;5.45;1.98;;;11.60;99.90;;;;;;4983032;28;20221;-57
2022/06/08 04:32:05;;;;;;;10.23;2.95;;;11.60;99.90;;;;;;4986173;28;20173;-57
2022/06/08 04:34:33;;;;;;;4.95;2.25;;;11.60;99.90;;;;;;4985358;28;20640;-57
2022/06/08 04:37:01;;;;;;;4.65;2.42;;;11.70;99.90;;;;;;4981906;28;20045;-57
2022/06/08 04:39:37;;;;;;;5.15;2.30;;;11.70;99.90;;;;;;4985229;28;20261;-59
2022/06/08 04:42:05;;;;;;;3.45;2.17;;;11.70;99.90;;;;;;4982673;28;20045;-56
2022/06/08 04:44:37;;;;;;;9.80;3.00;;;11.70;99.90;;;;;;4982850;28;20123;-57
2022/06/08 04:47:08;;;;;;;7.13;2.20;;;11.70;99.90;;;;;;4985524;28;20257;-57
2022/06/08 04:49:37;;;;;;;6.68;2.42;;;11.80;99.90;;;;;;4987007;28;20037;-59
2022/06/08 04:52:05;;;;;;;6.63;1.92;;;11.80;99.90;;;;;;4986297;28;20806;-57
2022/06/08 04:54:33;;;;;;;6.45;2.65;;;11.90;99.90;;;;;;4988020;28;20194;-54
2022/06/08 04:57:00;;;;;;;5.57;1.88;;;11.90;99.90;;;;;;4986434;28;20076;-53
2022/06/08 04:59:28;;;;;;;4.50;2.63;;;12.00;99.90;;;;;;4988150;28;20033;-54
2022/06/08 05:02:04;;;;;;;5.60;1.40;;;12.00;99.90;;;;;;4984857;28;20780;-53
2022/06/08 05:04:32;;;;;;;8.07;1.90;;;12.10;99.90;;;;;;4990466;28;20045;-54
2022/06/08 05:06:59;;;;;;;6.25;1.90;;;12.10;99.90;;;;;;4987038;28;20029;-52
2022/06/08 05:09:28;;;;;;;9.10;2.65;;;12.20;99.90;;;;;;4970674;28;20203;-53
2022/06/08 05:11:55;;;;;;;3.08;1.88;;;12.20;99.90;;;;;;4989386;28;20455;-53
2022/06/08 05:14:22;;;;;;;7.50;1.80;;;12.30;99.90;;;;;;4987342;28;20063;-53
2022/06/08 05:16:52;;;;;;;3.65;1.90;;;12.40;99.90;;;;;;4983502;28;20412;-54
2022/06/08 05:19:19;;;;;;;4.55;2.05;;;12.40;99.90;;;;;;4980598;28;20045;-54
2022/06/08 05:21:47;;;;;;;2.92;1.73;;;12.50;99.90;;;;;;4963587;28;20050;-53
2022/06/08 05:24:19;;;;;;;3.90;1.55;;;12.50;99.90;;;;;;4981137;28;20651;-55
2022/06/08 05:26:50;;;;;;;9.70;2.17;;;12.60;99.90;;;;;;4967291;28;20045;-54
2022/06/08 05:29:17;;;;;;;3.67;1.50;;;12.70;99.90;;;;;;4948506;28;20295;-53
2022/06/08 05:31:47;;;;;;;8.20;2.13;;;12.80;99.90;;;;;;4950179;28;20203;-54
2022/06/08 05:34:14;;;;;;;5.60;2.00;;;12.80;99.90;;;;;;4969521;28;20341;-54
2022/06/08 05:36:43;;;;;;;3.70;1.52;;;12.90;99.90;;;;;;4981919;28;20037;-54
2022/06/08 05:39:17;;;;;;;4.45;1.67;;;13.00;99.90;;;;;;4981986;28;20944;-54
2022/06/08 05:41:45;;;;;;;7.97;2.80;;;13.00;99.90;;;;;;4975982;28;20041;-53
2022/06/08 05:44:13;;;;;;;7.00;2.08;;;13.10;99.90;;;;;;4985539;28;20417;-54
2022/06/08 05:46:41;;;;;;;4.88;1.40;;;13.10;99.90;;;;;;4971608;28;20654;-53
2022/06/08 05:49:12;;;;;;;6.25;2.15;;;13.20;99.90;;;;;;4986213;28;20558;-55
2022/06/08 05:51:44;;;;;;;4.30;1.50;;;13.30;99.90;;;;;;4984623;28;20053;-56
2022/06/08 05:54:13;;;;;;;2.15;1.42;;;13.40;99.90;;;;;;4987022;28;20226;-55
2022/06/08 05:56:40;;;;;;;4.45;2.25;;;13.40;99.90;;;;;;4983734;28;20585;-56
2022/06/08 05:59:09;;;;;;;3.63;1.85;;;13.50;99.90;;;;;;4985266;28;20064;-56
2022/06/08 06:01:40;;;;;;;2.97;1.75;;;13.60;99.90;;;;;;4985003;28;20246;-55
2022/06/08 06:04:08;;;;;;;6.20;1.73;;;13.60;99.90;;;;;;4986632;28;20063;-55
2022/06/08 06:06:38;;;;;;;7.97;1.88;;;13.70;99.90;;;;;;4986132;28;20821;-56
2022/06/08 06:09:05;;;;;;;3.72;1.70;;;13.70;99.90;;;;;;4967373;28;20130;-54
2022/06/08 06:11:34;;;;;;;3.72;1.65;;;13.80;99.90;;;;;;4985230;28;20710;-55
2022/06/08 06:14:01;;;;;;;5.07;1.67;;;13.90;99.90;;;;;;4984239;28;20579;-55
2022/06/08 06:16:30;;;;;;;5.40;1.77;;;14.00;99.90;;;;;;4986859;28;20309;-55
2022/06/08 06:18:58;;;;;;;8.38;2.10;;;14.10;99.90;;;;;;4983975;28;20052;-55
2022/06/08 06:21:54;;;;;;;4.07;1.95;;;14.20;99.90;;;;;;4961482;28;20041;-54
2022/06/08 06:24:50;;;;;;;3.33;1.63;;;14.40;99.90;;;;;;4981010;28;20041;-55
2022/06/08 06:27:21;;;;;;;5.57;1.73;;;14.50;99.90;;;;;;4966753;28;20041;-54
2022/06/08 06:30:07;;;;;;;7.35;1.85;;;14.70;99.90;;;;;;4980921;28;20390;-54
2022/06/08 06:32:37;;;;;;;4.57;1.50;;;14.80;99.90;;;;;;4966402;28;20064;-54
2022/06/08 06:35:09;;;;;;;5.82;1.58;;;14.90;99.90;;;;;;4968104;28;20182;-55
2022/06/08 06:37:37;;;;;;;8.85;2.30;;;15.00;99.90;;;;;;4967858;28;20073;-55
2022/06/08 06:40:07;;;;;;;7.75;1.92;;;15.20;99.90;;;;;;4968379;28;20202;-55
2022/06/08 06:42:34;;;;;;;10.57;1.92;;;15.30;99.90;;;;;;4997810;28;20383;-57
2022/06/08 06:45:26;;;;;;;11.05;1.95;;;15.40;99.90;;;;;;4986709;28;20029;-57
2022/06/08 06:48:13;;;;;;;4.63;1.37;;;15.50;99.90;;;;;;4969767;28;20776;-57
2022/06/08 06:50:42;;;;;;;9.68;1.95;;;15.70;99.90;;;;;;4987176;28;20049;-53
2022/06/08 06:53:12;;;;;;;5.75;1.75;;;15.80;99.90;;;;;;4966592;28;20352;-56
2022/06/08 06:55:45;;;;;;;7.38;2.75;;;15.90;99.90;;;;;;4985022;28;20044;-55
2022/06/08 06:58:19;;;;;;;3.38;1.40;;;16.10;99.90;;;;;;4983583;28;20114;-54
2022/06/08 07:00:47;;;;;;;5.00;1.73;;;16.20;99.90;;;;;;4987083;28;20045;-57
2022/06/08 07:03:17;;;;;;;7.68;1.70;;;16.30;99.90;;;;;;4986865;28;20052;-63
2022/06/08 07:05:48;;;;;;;3.83;1.40;;;16.40;99.90;;;;;;4983705;28;20059;-65
2022/06/08 07:08:15;;;;;;;3.80;1.63;;;16.50;99.90;;;;;;4977635;28;20190;-59
2022/06/08 07:10:44;;;;;;;12.18;1.95;;;16.60;99.90;;;;;;4981372;28;20137;-62
2022/06/08 07:13:13;;;;;;;3.75;1.88;;;16.70;99.90;;;;;;4961363;28;20057;-53
2022/06/08 07:15:40;;;;;;;6.35;1.98;;;16.70;99.90;;;;;;4980717;28;20313;-60
2022/06/08 07:18:07;;;;;;;8.18;2.00;;;16.70;99.90;;;;;;4983807;28;20800;-66
2022/06/08 07:20:35;;;;;;;5.55;1.45;;;16.80;99.90;;;;;;4980176;28;20072;-54
2022/06/08 07:23:02;;;;;;;5.93;1.67;;;16.90;99.90;;;;;;4974182;28;20136;-54
2022/06/08 07:25:29;;;;;;;4.65;1.73;;;16.90;99.90;;;;;;4984684;28;20636;-53
2022/06/08 07:27:56;;;;;;;6.28;1.50;;;17.00;99.90;;;;;;4984558;28;20041;-54
2022/06/08 07:30:23;;;;;;;5.57;1.55;;;17.00;99.90;;;;;;4987269;28;20337;-54
2022/06/08 07:32:50;;;;;;;5.07;1.50;;;17.10;99.90;;;;;;4966214;28;20853;-65
2022/06/08 07:35:17;;;;;;;7.72;1.45;;;17.20;99.90;;;;;;4985852;28;20041;-55
2022/06/08 07:37:44;;;;;;;4.47;1.70;;;17.20;99.90;;;;;;4984215;28;20802;-55
2022/06/08 07:40:11;;;;;;;8.95;1.65;;;17.30;99.90;;;;;;4983493;28;20219;-54
2022/06/08 07:42:38;;;;;;;4.45;1.48;;;17.40;99.90;;;;;;4984704;28;20364;-54
2022/06/08 07:45:07;;;;;;;4.22;1.20;;;17.50;99.90;;;;;;4986786;28;20037;-55
2022/06/08 07:49:36;;;;;;;6.55;1.75;;;17.60;99.90;;;;;;4983718;28;20048;-54
2022/06/08 07:50:22;;;;;;;2.15;1.02;;;17.70;99.90;;;;;;4986482;28;20568;-54
2022/06/08 07:52:49;;;;;;;6.30;2.10;;;17.70;99.90;;;;;;4987106;28;20037;-54
2022/06/08 07:55:17;;;;;;;5.63;1.70;;;17.80;99.90;;;;;;4987233;28;20863;-56
2022/06/08 07:57:47;;;;;;;7.38;1.60;;;17.80;99.90;;;;;;4985849;28;20052;-55
2022/06/08 08:00:18;;;;;;;4.03;1.30;;;17.80;99.90;;;;;;4986693;28;20707;-55
2022/06/08 08:02:45;;;;;;;7.90;1.83;;;17.80;99.90;;;;;;4986544;28;20339;-55
2022/06/08 08:05:14;;;;;;;6.50;1.73;;;17.90;99.90;;;;;;4976754;28;20316;-57
2022/06/08 08:07:42;;;;;;;5.80;1.90;;;17.90;99.90;;;;;;4980226;28;20045;-55
2022/06/08 08:10:14;;;;;;;6.32;1.58;;;18.00;99.90;;;;;;4986677;28;20048;-55
2022/06/08 08:12:41;;;;;;;7.35;1.67;;;18.20;99.90;;;;;;4984672;28;20049;-56
2022/06/08 08:15:08;;;;;;;6.70;1.65;;;18.30;99.90;;;;;;4984941;28;20422;-56
2022/06/08 08:17:36;;;;;;;4.63;2.00;;;18.50;99.90;;;;;;4984342;28;20053;-66
2022/06/08 08:20:04;;;;;;;5.70;1.70;;;18.70;99.90;;;;;;4986538;28;20041;-55
2022/06/08 08:22:32;;;;;;;7.55;1.63;;;18.90;99.90;;;;;;4980403;28;20052;-57
2022/06/08 08:24:59;;;;;;;2.70;1.58;;;19.10;99.90;;;;;;4967197;28;20982;-56
2022/06/08 08:27:27;;;;;;;7.82;1.98;;;19.20;99.90;;;;;;4965692;28;20041;-57
2022/06/08 08:29:54;;;;;;;4.72;1.38;;;19.40;99.90;;;;;;4966067;28;20065;-56
2022/06/08 08:32:20;;;;;;;6.78;2.25;;;19.60;99.90;;;;;;4966260;28;20045;-57
2022/06/08 08:34:48;;;;;;;9.63;2.50;;;19.80;99.90;;;;;;4966704;28;20329;-57
2022/06/08 08:37:15;;;;;;;3.13;1.17;;;20.00;99.90;;;;;;4963474;28;20038;-56
2022/06/08 08:39:42;;;;;;;7.70;2.15;;;20.10;99.90;;;;;;4966724;28;20181;-55
2022/06/08 08:42:20;;;;;;;7.25;1.60;;;20.20;99.90;;;;;;4977017;28;20850;-56
2022/06/08 08:44:50;;;;;;;5.05;1.55;;;20.20;99.90;;;;;;4984016;28;20051;-58
2022/06/08 08:47:34;;;;;;;15.85;2.17;;;20.30;99.90;;;;;;4983272;28;20045;-64
2022/06/08 08:50:22;;;;;;;5.05;2.00;;;20.50;99.90;;;;;;4983829;28;20276;-59
2022/06/08 08:53:22;;;;;;;3.83;1.75;;;20.80;99.90;;;;;;4987777;28;20048;-59
2022/06/08 08:56:08;;;;;;;3.40;1.38;;;21.10;99.90;;;;;;4985755;28;20459;-56
2022/06/08 08:58:42;;;;;;;4.35;1.35;;;21.50;99.90;;;;;;4986627;28;20605;-56
2022/06/08 09:01:26;;;;;;;8.50;2.15;;;21.80;99.90;;;;;;4985507;28;20107;-55
2022/06/08 09:04:16;;;;;;;7.22;1.70;;;22.10;95.80;;;;;;4984118;28;20194;-56
2022/06/08 09:06:43;;;;;;;2.55;1.35;;;22.10;95.00;;;;;;4967072;28;20366;-56
2022/06/08 09:09:15;;;;;;;5.43;1.50;;;22.20;91.20;;;;;;4985620;28;20599;-56
2022/06/08 09:11:44;;;;;;;5.90;1.33;;;22.30;88.40;;;;;;4985386;28;20566;-56
2022/06/08 09:14:58;;;;;;;3.75;1.70;;;22.30;88.10;;;;;;4985500;28;20566;-55
2022/06/08 09:17:48;;;;;;;10.40;1.92;;;22.40;98.60;;;;;;4981868;28;20878;-55
2022/06/08 09:20:45;;;;;;;7.72;1.95;;;22.50;99.80;;;;;;4983367;28;20048;-54
2022/06/08 09:23:44;;;;;;;3.13;1.48;;;22.50;99.20;;;;;;4966307;28;20341;-54
2022/06/08 09:26:30;;;;;;;4.80;1.50;;;22.50;95.20;;;;;;4981702;28;20574;-56
2022/06/08 09:29:08;;;;;;;3.00;1.33;;;22.50;76.10;;;;;;4984413;28;20037;-57
2022/06/08 09:31:37;;;;;;;5.82;1.33;;;22.30;97.50;;;;;;4986671;28;20064;-56
2022/06/08 09:34:07;;;;;;;4.65;1.58;;;22.20;99.50;;;;;;4988727;28;20044;-56
2022/06/08 09:36:34;;;;;;;4.75;1.70;;;22.00;99.90;;;;;;4990914;28;20040;-56
2022/06/08 09:39:02;;;;;;;6.75;1.55;;;21.90;99.90;;;;;;4986851;28;20912;-57
2022/06/08 09:41:50;;;;;;;5.47;2.00;;;21.90;99.90;;;;;;4988351;28;20040;-56
2022/06/08 09:44:25;;;;;;;8.27;2.17;;;21.80;99.90;;;;;;4971384;28;20150;-56
2022/06/08 09:54:04;;;;;;;5.22;1.90;;;22.10;99.90;;;;;;4922567;28;20868;-58
2022/06/08 09:56:50;;;;;;;7.53;1.70;;;22.00;99.90;;;;;;4925189;28;21111;-54
2022/06/08 09:59:55;;;;;;;7.65;1.77;;;22.00;99.90;;;;;;4971366;28;20163;-53
2022/06/08 10:02:32;;;;;;;4.60;1.60;;;21.90;99.90;;;;;;4987386;28;20037;-54
2022/06/08 10:05:29;;;;;;;9.55;1.55;;;21.90;99.90;;;;;;4987734;28;20306;-55
2022/06/08 10:08:28;;;;;;;5.50;1.77;;;21.90;99.90;;;;;;4975688;28;20946;-56
2022/06/08 10:11:34;;;;;;;7.60;1.95;;;22.20;99.90;;;;;;4973283;28;20053;-55
2022/06/08 10:14:26;;;;;;;5.60;1.92;;;22.30;99.90;;;;;;4986904;28;20492;-56
2022/06/08 10:17:16;;;;;;;3.08;1.85;;;22.20;99.90;;;;;;4945789;28;20150;-56
2022/06/08 10:20:06;;;;;;;5.82;1.83;;;22.10;99.90;;;;;;4987857;28;20179;-56
2022/06/08 10:22:52;;;;;;;5.05;1.50;;;22.10;99.90;;;;;;4988740;28;20045;-55
2022/06/08 10:25:26;;;;;;;5.95;2.00;;;22.10;99.90;;;;;;4985873;28;20353;-56
2022/06/08 10:28:02;;;;;;;6.32;1.90;;;22.20;99.90;;;;;;4987395;28;20037;-55
2022/06/08 10:30:47;;;;;;;3.72;1.42;;;22.40;99.90;;;;;;4989332;28;20602;-56
2022/06/08 10:33:37;;;;;;;4.38;1.63;;;22.70;99.90;;;;;;4988748;28;20852;-56
2022/06/08 10:36:10;;;;;;;8.32;1.85;;;22.90;99.90;;;;;;4966499;28;20049;-56
2022/06/08 10:38:44;;;;;;;9.93;2.05;;;23.00;99.10;;;;;;4967821;28;20052;-56
2022/06/08 10:44:32;;;;;;;5.95;1.90;;;23.10;97.30;;;;;;4987195;28;20146;-55
2022/06/08 10:47:12;;;;;;;5.97;1.25;;;23.10;96.10;;;;;;4987756;28;20418;-56
2022/06/08 10:49:39;;;;;;;6.78;1.98;;;23.20;98.90;;;;;;4987451;28;20040;-54
2022/06/08 10:52:20;;;;;;;7.18;1.92;;;23.40;93.90;;;;;;4974635;28;20558;-55
2022/06/08 10:54:54;;;;;;;5.70;1.40;;;23.70;99.10;;;;;;4987266;28;20243;-54
2022/06/08 10:57:42;;;;;;;7.43;1.90;;;23.90;96.40;;;;;;4987039;28;20156;-55
2022/06/08 11:00:22;;;;;;;2.33;1.20;;;24.10;91.30;;;;;;4986679;28;20045;-55
2022/06/08 11:03:01;;;;;;;7.15;1.40;;;24.20;95.00;;;;;;4971042;28;20056;-54
2022/06/08 11:05:39;;;;;;;5.18;1.65;;;24.40;91.50;;;;;;4985316;28;20626;-54
2022/06/08 11:08:07;;;;;;;5.57;2.20;;;24.50;80.90;;;;;;4968797;28;20230;-60
2022/06/08 11:10:44;;;;;;;4.50;1.13;;;24.60;73.20;;;;;;4965584;28;20757;-57
2022/06/08 11:13:12;;;;;;;;;;;24.80;82.60;;;;;;4970333;28;20333;-55
2022/06/08 11:15:52;;;;;;;4.85;1.65;;;24.90;73.70;;;;;;4968548;28;20047;-53
2022/06/08 11:18:30;;;;;;;4.63;1.58;;;25.00;75.20;;;;;;4986595;28;20056;-54
2022/06/08 11:21:13;;;;;;;9.65;1.90;;;24.80;60.00;;;;;;4984523;28;20182;-56
2022/06/08 11:23:48;;;;;;;4.75;1.63;;;24.80;64.20;;;;;;4986367;28;20036;-54
2022/06/08 11:26:25;;;;;;;5.18;1.75;;;24.80;66.30;;;;;;4987534;28;20033;-56
2022/06/08 11:29:18;;;;;;;5.50;1.63;;;24.90;68.50;;;;;;4978335;28;20038;-57
2022/06/08 11:31:48;;;;;;;8.02;1.95;;;25.00;65.40;;;;;;4967452;28;20210;-57
2022/06/08 11:34:21;;;;;;;4.40;1.42;;;25.10;74.10;;;;;;4966454;28;20052;-55
2022/06/08 11:36:55;;;;;;;5.15;1.55;;;25.20;67.30;;;;;;4969074;28;20606;-57
2022/06/08 11:39:53;;;;;;;5.07;1.33;;;25.20;65.50;;;;;;4967641;28;20418;-57
2022/06/08 11:42:53;;;;;;;6.63;1.90;;;25.30;70.30;;;;;;4982188;28;20818;-56
2022/06/08 11:45:24;;;;;;;3.25;1.80;;;25.30;69.00;;;;;;4944628;28;20209;-55
2022/06/08 11:47:59;;;;;;;4.55;1.70;;;25.50;64.40;;;;;;4968711;28;20049;-56
2022/06/08 11:50:50;;;;;;;4.18;1.25;;;25.30;55.10;;;;;;4968388;28;20029;-56
2022/06/08 11:53:39;;;;;;;3.78;1.35;;;25.20;63.90;;;;;;4967445;28;20236;-58
2022/06/08 11:56:21;;;;;;;7.53;1.52;;;25.30;61.10;;;;;;4964838;28;20119;-57
2022/06/08 11:58:55;;;;;;;5.22;1.10;;;25.40;64.90;;;;;;4968094;28;20103;-56
2022/06/08 12:01:26;;;;;;;3.67;1.42;;;25.60;62.70;;;;;;4962907;28;20367;-57
2022/06/08 12:04:06;;;;;;;2.80;1.13;;;25.80;62.30;;;;;;4970820;28;20551;-56
2022/06/08 12:06:38;;;;;;;7.68;1.30;;;25.90;64.70;;;;;;4985203;28;20063;-57
2022/06/08 12:09:12;;;;;;;5.70;1.38;;;26.10;69.50;;;;;;4986551;28;20084;-56
2022/06/08 12:11:45;;;;;;;3.92;1.35;;;26.20;59.00;;;;;;4985779;28;20832;-56
2022/06/08 12:14:23;;;;;;;2.33;1.02;;;26.10;52.90;;;;;;4986383;28;20037;-56
2022/06/08 12:17:10;;;;;;;2.38;0.82;;;25.90;51.10;;;;;;4985073;28;20837;-56
2022/06/08 12:19:55;;;;;;;3.08;1.40;;;25.80;50.80;;;;;;4989968;28;20244;-55
2022/06/08 12:22:29;;;;;;;4.07;1.10;;;25.60;50.90;;;;;;4988275;28;20202;-56
2022/06/08 12:25:09;;;;;;;5.10;1.27;;;25.50;50.10;;;;;;4985372;28;20064;-56
2022/06/08 12:27:57;;;;;;;3.97;1.23;;;25.00;51.20;;;;;;4982380;28;20620;-55
2022/06/08 12:30:33;;;;;;;2.92;1.08;;;24.60;52.80;;;;;;4961019;28;20594;-56
2022/06/08 12:33:22;;;;;;;3.95;1.40;;;24.20;55.80;;;;;;4964240;28;20767;-55
2022/06/08 12:36:06;;;;;;;5.75;1.73;;;24.10;58.30;;;;;;4965427;28;20969;-55
2022/06/08 12:38:37;;;;;;;4.03;1.45;;;24.00;59.00;;;;;;4966991;28;20714;-56
2022/06/08 12:41:15;;;;;;;8.52;1.20;;;24.00;63.10;;;;;;4968451;28;20837;-55
2022/06/08 12:43:48;;;;;;;4.28;1.23;;;24.20;61.10;;;;;;4986573;28;20040;-57
2022/06/08 12:46:29;;;;;;;15.45;2.85;;;24.40;58.90;;;;;;4986526;28;20037;-56
2022/06/08 12:48:58;;;;;;;5.07;1.20;;;24.50;60.00;;;;;;4987822;28;20589;-55
2022/06/08 12:51:38;;;;;;;3.78;1.13;;;24.80;63.90;;;;;;4985066;28;20841;-56
2022/06/08 12:54:28;;;;;;;3.67;1.40;;;25.10;57.20;;;;;;4986976;28;20041;-56
2022/06/08 12:57:10;;;;;;;3.83;1.00;;;25.40;52.20;;;;;;4986325;28;20788;-57
2022/06/08 12:59:37;;;;;;;10.00;1.55;;;25.40;53.00;;;;;;4988432;28;20045;-56
2022/06/08 13:02:13;;;;;;;3.80;1.10;;;25.60;54.70;;;;;;4984680;28;20403;-57
2022/06/08 13:04:42;;;;;;;2.42;0.98;;;25.60;50.70;;;;;;4982604;28;20197;-57
2022/06/08 13:07:18;;;;;;;5.28;1.08;;;25.60;51.30;;;;;;4980502;28;20032;-57
2022/06/08 13:09:47;;;;;;;4.00;0.85;;;25.70;46.70;;;;;;4991531;28;20313;-56
2022/06/08 13:12:32;;;;;;;2.42;0.82;;;25.60;48.90;;;;;;4987216;28;20044;-56
2022/06/08 13:15:00;;;;;;;1.98;0.80;;;25.50;48.20;;;;;;4989199;28;20137;-56
2022/06/08 13:17:28;;;;;;;6.82;1.15;;;25.30;45.90;;;;;;4989279;28;20037;-57
2022/06/08 13:19:57;;;;;;;4.93;0.80;;;25.10;47.10;;;;;;4988585;28;20574;-60
2022/06/08 13:22:26;;;;;;;5.15;0.90;;;24.90;48.60;;;;;;4991790;28;20277;-56
2022/06/08 13:24:54;;;;;;;1.67;0.85;;;24.90;48.90;;;;;;4989499;28;20606;-56
2022/06/08 13:27:22;;;;;;;3.42;0.95;;;24.90;49.60;;;;;;4986496;28;20056;-56
2022/06/08 13:29:49;;;;;;;2.53;1.17;;;24.90;50.20;;;;;;4977479;28;20065;-56
2022/06/08 13:32:19;;;;;;;2.55;0.93;;;24.90;52.00;;;;;;4968885;28;20045;-60
2022/06/08 13:34:48;;;;;;;3.08;1.20;;;24.90;50.90;;;;;;4969498;28;20051;-56
2022/06/08 13:37:49;;;;;;;3.33;1.13;;;24.70;49.60;;;;;;4970776;28;20080;-56
2022/06/08 13:40:26;;;;;;;3.80;0.85;;;24.10;49.60;;;;;;4968925;28;20200;-57